Terminal Aerodrome Forecast
Issued by NWS

Home | Current Version | Previous Version | Text Only | Print | Product List | Glossary On
Versions: 1 2 3 4 5 6 7 8 9 10 11 12 13 14 15 16 17 18 19
000
FTUS43 KDTX 232332
TAFPTK
TAF
KPTK 232332Z 2400/2424 30007KT P6SM SCT050 BKN100
     FM240900 30010KT P6SM OVC007
     FM241600 33010KT P6SM BKN035
     FM242000 36013KT P6SM SCT050=

USA.gov is the U.S. government's official web portal to all federal, state and local government web resources and services.